sensor_id;sensor_type;location;lat;lon;timestamp;temperature;humidity
46283;DHT22;32017;43.700;11.820;2022-09-09T00:00:47;19.30;99.90
46283;DHT22;32017;43.700;11.820;2022-09-09T00:09:28;19.20;99.90
46283;DHT22;32017;43.700;11.820;2022-09-09T00:11:50;19.10;99.90
46283;DHT22;32017;43.700;11.820;2022-09-09T00:13:53;19.00;99.90
46283;DHT22;32017;43.700;11.820;2022-09-09T00:16:09;19.00;99.90
46283;DHT22;32017;43.700;11.820;2022-09-09T00:23:12;18.90;99.90
46283;DHT22;32017;43.700;11.820;2022-09-09T00:25:16;18.80;99.90
46283;DHT22;32017;43.700;11.820;2022-09-09T00:29:43;18.50;99.90
46283;DHT22;32017;43.700;11.820;2022-09-09T00:31:47;18.60;99.90
46283;DHT22;32017;43.700;11.820;2022-09-09T00:33:53;18.60;99.90
46283;DHT22;32017;43.700;11.820;2022-09-09T00:36:09;18.60;99.90
46283;DHT22;32017;43.700;11.820;2022-09-09T00:56:20;18.30;99.90
46283;DHT22;32017;43.700;11.820;2022-09-09T00:58:23;18.40;99.90
46283;DHT22;32017;43.700;11.820;2022-09-09T01:00:44;18.40;99.90
46283;DHT22;32017;43.700;11.820;2022-09-09T01:02:50;18.40;99.90
46283;DHT22;32017;43.700;11.820;2022-09-09T01:04:55;18.40;99.90
46283;DHT22;32017;43.700;11.820;2022-09-09T01:07:20;18.30;99.90
46283;DHT22;32017;43.700;11.820;2022-09-09T01:09:26;18.30;99.90
46283;DHT22;32017;43.700;11.820;2022-09-09T01:16:28;18.30;99.90
46283;DHT22;32017;43.700;11.820;2022-09-09T01:18:37;18.40;99.90
46283;DHT22;32017;43.700;11.820;2022-09-09T01:27:11;18.50;99.90
46283;DHT22;32017;43.700;11.820;2022-09-09T01:29:16;18.40;99.90
46283;DHT22;32017;43.700;11.820;2022-09-09T01:31:23;18.40;99.90
46283;DHT22;32017;43.700;11.820;2022-09-09T01:33:30;18.50;99.90
46283;DHT22;32017;43.700;11.820;2022-09-09T01:35:42;18.50;99.90
46283;DHT22;32017;43.700;11.820;2022-09-09T01:37:48;18.60;99.90
46283;DHT22;32017;43.700;11.820;2022-09-09T01:39:51;18.40;99.90
46283;DHT22;32017;43.700;11.820;2022-09-09T01:41:54;18.30;99.90
46283;DHT22;32017;43.700;11.820;2022-09-09T01:44:00;18.40;99.90
46283;DHT22;32017;43.700;11.820;2022-09-09T01:46:04;18.40;99.90
46283;DHT22;32017;43.700;11.820;2022-09-09T01:48:06;18.30;99.90
46283;DHT22;32017;43.700;11.820;2022-09-09T01:50:10;18.30;99.90
46283;DHT22;32017;43.700;11.820;2022-09-09T01:52:13;18.10;99.90
46283;DHT22;32017;43.700;11.820;2022-09-09T01:54:17;18.00;99.90
46283;DHT22;32017;43.700;11.820;2022-09-09T01:56:22;17.90;99.90
46283;DHT22;32017;43.700;11.820;2022-09-09T02:00:33;17.90;99.90
46283;DHT22;32017;43.700;11.820;2022-09-09T02:04:44;17.90;99.90
46283;DHT22;32017;43.700;11.820;2022-09-09T02:06:48;17.90;99.90
46283;DHT22;32017;43.700;11.820;2022-09-09T02:08:53;17.90;99.90
46283;DHT22;32017;43.700;11.820;2022-09-09T02:11:01;18.00;99.90
46283;DHT22;32017;43.700;11.820;2022-09-09T02:13:07;18.00;99.90
46283;DHT22;32017;43.700;11.820;2022-09-09T02:15:35;17.80;99.90
46283;DHT22;32017;43.700;11.820;2022-09-09T02:17:42;17.70;99.90
46283;DHT22;32017;43.700;11.820;2022-09-09T02:19:46;17.70;99.90
46283;DHT22;32017;43.700;11.820;2022-09-09T02:21:50;17.70;99.90
46283;DHT22;32017;43.700;11.820;2022-09-09T02:23:56;17.90;99.90
46283;DHT22;32017;43.700;11.820;2022-09-09T02:26:03;17.90;99.90
46283;DHT22;32017;43.700;11.820;2022-09-09T02:28:07;18.00;99.90
46283;DHT22;32017;43.700;11.820;2022-09-09T02:30:10;17.90;99.90
46283;DHT22;32017;43.700;11.820;2022-09-09T02:32:20;17.90;99.90
46283;DHT22;32017;43.700;11.820;2022-09-09T02:34:24;17.80;99.90
46283;DHT22;32017;43.700;11.820;2022-09-09T02:36:28;17.80;99.90
46283;DHT22;32017;43.700;11.820;2022-09-09T02:38:34;17.90;99.90
46283;DHT22;32017;43.700;11.820;2022-09-09T02:40:41;17.90;99.90
46283;DHT22;32017;43.700;11.820;2022-09-09T02:42:47;17.90;99.90
46283;DHT22;32017;43.700;11.820;2022-09-09T02:44:51;17.80;99.90
46283;DHT22;32017;43.700;11.820;2022-09-09T02:49:03;17.90;99.90
46283;DHT22;32017;43.700;11.820;2022-09-09T02:53:28;17.80;99.90
46283;DHT22;32017;43.700;11.820;2022-09-09T02:57:57;17.60;99.90
46283;DHT22;32017;43.700;11.820;2022-09-09T03:00:01;17.60;99.90
46283;DHT22;32017;43.700;11.820;2022-09-09T03:02:03;17.40;99.90
46283;DHT22;32017;43.700;11.820;2022-09-09T03:04:25;17.20;99.90
46283;DHT22;32017;43.700;11.820;2022-09-09T03:06:27;17.30;99.90
46283;DHT22;32017;43.700;11.820;2022-09-09T03:08:31;17.30;99.90
46283;DHT22;32017;43.700;11.820;2022-09-09T03:10:38;17.30;99.90
46283;DHT22;32017;43.700;11.820;2022-09-09T03:12:41;17.30;99.90
46283;DHT22;32017;43.700;11.820;2022-09-09T03:14:46;17.20;99.90
46283;DHT22;32017;43.700;11.820;2022-09-09T03:16:49;17.20;99.90
46283;DHT22;32017;43.700;11.820;2022-09-09T03:18:53;17.20;99.90
46283;DHT22;32017;43.700;11.820;2022-09-09T03:20:56;17.10;99.90
46283;DHT22;32017;43.700;11.820;2022-09-09T03:23:01;17.10;99.90
46283;DHT22;32017;43.700;11.820;2022-09-09T03:25:04;17.10;99.90
46283;DHT22;32017;43.700;11.820;2022-09-09T03:27:07;17.10;99.90
46283;DHT22;32017;43.700;11.820;2022-09-09T03:29:11;17.10;99.90
46283;DHT22;32017;43.700;11.820;2022-09-09T03:31:15;17.00;99.90
46283;DHT22;32017;43.700;11.820;2022-09-09T03:33:18;17.00;99.90
46283;DHT22;32017;43.700;11.820;2022-09-09T03:35:21;16.90;99.90
46283;DHT22;32017;43.700;11.820;2022-09-09T03:37:23;16.80;99.90
46283;DHT22;32017;43.700;11.820;2022-09-09T03:39:26;16.80;99.90
46283;DHT22;32017;43.700;11.820;2022-09-09T03:41:30;16.90;99.90
46283;DHT22;32017;43.700;11.820;2022-09-09T03:43:33;16.90;99.90
46283;DHT22;32017;43.700;11.820;2022-09-09T03:45:38;16.80;99.90
46283;DHT22;32017;43.700;11.820;2022-09-09T03:47:41;16.90;99.90
46283;DHT22;32017;43.700;11.820;2022-09-09T03:49:43;17.00;99.90
46283;DHT22;32017;43.700;11.820;2022-09-09T03:51:46;17.00;99.90
46283;DHT22;32017;43.700;11.820;2022-09-09T03:53:48;17.10;99.90
46283;DHT22;32017;43.700;11.820;2022-09-09T03:55:53;17.20;99.90
46283;DHT22;32017;43.700;11.820;2022-09-09T03:57:57;17.10;99.90
46283;DHT22;32017;43.700;11.820;2022-09-09T04:00:06;17.10;99.90
46283;DHT22;32017;43.700;11.820;2022-09-09T04:02:09;17.10;99.90
46283;DHT22;32017;43.700;11.820;2022-09-09T04:04:12;17.20;99.90
46283;DHT22;32017;43.700;11.820;2022-09-09T04:06:16;17.20;99.90
46283;DHT22;32017;43.700;11.820;2022-09-09T04:08:20;17.20;99.90
46283;DHT22;32017;43.700;11.820;2022-09-09T04:10:23;17.20;99.90
46283;DHT22;32017;43.700;11.820;2022-09-09T04:12:32;17.20;99.90
46283;DHT22;32017;43.700;11.820;2022-09-09T04:14:42;17.20;99.90
46283;DHT22;32017;43.700;11.820;2022-09-09T04:16:45;17.20;99.90
46283;DHT22;32017;43.700;11.820;2022-09-09T04:18:49;17.10;99.90
46283;DHT22;32017;43.700;11.820;2022-09-09T04:20:52;17.20;99.90
46283;DHT22;32017;43.700;11.820;2022-09-09T04:22:57;17.30;99.90
46283;DHT22;32017;43.700;11.820;2022-09-09T04:25:00;17.20;99.90
46283;DHT22;32017;43.700;11.820;2022-09-09T04:27:02;17.10;99.90
46283;DHT22;32017;43.700;11.820;2022-09-09T04:29:05;17.10;99.90
46283;DHT22;32017;43.700;11.820;2022-09-09T04:31:18;17.10;99.90
46283;DHT22;32017;43.700;11.820;2022-09-09T04:33:23;17.10;99.90
46283;DHT22;32017;43.700;11.820;2022-09-09T04:35:32;17.10;99.90
46283;DHT22;32017;43.700;11.820;2022-09-09T04:37:36;17.00;99.90
46283;DHT22;32017;43.700;11.820;2022-09-09T04:39:39;17.00;99.90
46283;DHT22;32017;43.700;11.820;2022-09-09T04:41:44;17.00;99.90
46283;DHT22;32017;43.700;11.820;2022-09-09T04:43:47;17.00;99.90
46283;DHT22;32017;43.700;11.820;2022-09-09T04:45:50;16.90;99.90
46283;DHT22;32017;43.700;11.820;2022-09-09T04:47:57;16.90;99.90
46283;DHT22;32017;43.700;11.820;2022-09-09T04:52:25;17.00;99.90
46283;DHT22;32017;43.700;11.820;2022-09-09T04:54:30;17.00;99.90
46283;DHT22;32017;43.700;11.820;2022-09-09T04:56:32;16.90;99.90
46283;DHT22;32017;43.700;11.820;2022-09-09T04:58:38;16.90;99.90
46283;DHT22;32017;43.700;11.820;2022-09-09T05:00:41;16.80;99.90
46283;DHT22;32017;43.700;11.820;2022-09-09T05:02:45;16.80;99.90
46283;DHT22;32017;43.700;11.820;2022-09-09T05:04:49;16.70;99.90
46283;DHT22;32017;43.700;11.820;2022-09-09T05:06:51;16.70;99.90
46283;DHT22;32017;43.700;11.820;2022-09-09T05:08:54;16.80;99.90
46283;DHT22;32017;43.700;11.820;2022-09-09T05:10:58;16.80;99.90
46283;DHT22;32017;43.700;11.820;2022-09-09T05:13:01;16.80;99.90
46283;DHT22;32017;43.700;11.820;2022-09-09T05:15:05;16.70;99.90
46283;DHT22;32017;43.700;11.820;2022-09-09T05:17:09;16.90;99.90
46283;DHT22;32017;43.700;11.820;2022-09-09T05:19:13;16.90;99.90
46283;DHT22;32017;43.700;11.820;2022-09-09T05:21:18;16.90;99.90
46283;DHT22;32017;43.700;11.820;2022-09-09T05:23:20;16.90;99.90
46283;DHT22;32017;43.700;11.820;2022-09-09T05:25:28;16.80;99.90
46283;DHT22;32017;43.700;11.820;2022-09-09T05:27:37;16.70;99.90
46283;DHT22;32017;43.700;11.820;2022-09-09T05:29:40;16.70;99.90
46283;DHT22;32017;43.700;11.820;2022-09-09T05:31:45;16.70;99.90
46283;DHT22;32017;43.700;11.820;2022-09-09T05:33:50;16.80;99.90
46283;DHT22;32017;43.700;11.820;2022-09-09T05:36:01;16.80;99.90
46283;DHT22;32017;43.700;11.820;2022-09-09T05:38:07;16.90;99.90
46283;DHT22;32017;43.700;11.820;2022-09-09T05:40:11;16.80;99.90
46283;DHT22;32017;43.700;11.820;2022-09-09T05:42:15;16.80;99.90
46283;DHT22;32017;43.700;11.820;2022-09-09T05:44:19;16.90;99.90
46283;DHT22;32017;43.700;11.820;2022-09-09T05:46:23;16.90;99.90
46283;DHT22;32017;43.700;11.820;2022-09-09T05:48:40;17.00;99.90
46283;DHT22;32017;43.700;11.820;2022-09-09T05:50:52;17.00;99.90
46283;DHT22;32017;43.700;11.820;2022-09-09T05:52:54;17.00;99.90
46283;DHT22;32017;43.700;11.820;2022-09-09T05:55:01;17.10;99.90
46283;DHT22;32017;43.700;11.820;2022-09-09T05:57:06;17.10;99.90
46283;DHT22;32017;43.700;11.820;2022-09-09T05:59:10;17.30;99.90
46283;DHT22;32017;43.700;11.820;2022-09-09T06:03:22;17.40;99.90
46283;DHT22;32017;43.700;11.820;2022-09-09T06:05:26;17.60;99.90
46283;DHT22;32017;43.700;11.820;2022-09-09T06:07:30;17.60;99.90
46283;DHT22;32017;43.700;11.820;2022-09-09T06:09:34;17.50;99.90
46283;DHT22;32017;43.700;11.820;2022-09-09T06:11:38;17.50;99.90
46283;DHT22;32017;43.700;11.820;2022-09-09T06:13:40;17.50;99.90
46283;DHT22;32017;43.700;11.820;2022-09-09T06:15:50;17.50;99.90
46283;DHT22;32017;43.700;11.820;2022-09-09T06:17:59;17.50;99.90
46283;DHT22;32017;43.700;11.820;2022-09-09T06:20:01;17.40;99.90
46283;DHT22;32017;43.700;11.820;2022-09-09T06:22:05;17.40;99.90
46283;DHT22;32017;43.700;11.820;2022-09-09T06:24:07;17.40;99.90
46283;DHT22;32017;43.700;11.820;2022-09-09T06:26:19;17.40;99.90
46283;DHT22;32017;43.700;11.820;2022-09-09T06:28:22;17.30;99.90
46283;DHT22;32017;43.700;11.820;2022-09-09T06:30:26;17.30;99.90
46283;DHT22;32017;43.700;11.820;2022-09-09T06:32:28;17.40;99.90
46283;DHT22;32017;43.700;11.820;2022-09-09T06:34:31;17.50;99.90
46283;DHT22;32017;43.700;11.820;2022-09-09T06:36:37;17.50;99.90
46283;DHT22;32017;43.700;11.820;2022-09-09T06:38:39;17.60;99.90
46283;DHT22;32017;43.700;11.820;2022-09-09T06:40:41;17.60;99.90
46283;DHT22;32017;43.700;11.820;2022-09-09T06:42:45;17.60;99.90
46283;DHT22;32017;43.700;11.820;2022-09-09T06:45:02;17.60;99.90
46283;DHT22;32017;43.700;11.820;2022-09-09T06:47:06;17.70;99.90
46283;DHT22;32017;43.700;11.820;2022-09-09T06:49:08;17.70;99.90
46283;DHT22;32017;43.700;11.820;2022-09-09T06:51:14;17.70;99.90
46283;DHT22;32017;43.700;11.820;2022-09-09T06:53:17;17.80;99.90
46283;DHT22;32017;43.700;11.820;2022-09-09T06:55:22;17.90;99.90
46283;DHT22;32017;43.700;11.820;2022-09-09T06:57:24;18.00;99.90
46283;DHT22;32017;43.700;11.820;2022-09-09T06:59:41;18.30;99.90
46283;DHT22;32017;43.700;11.820;2022-09-09T07:01:45;18.40;99.90
46283;DHT22;32017;43.700;11.820;2022-09-09T07:04:01;18.60;99.90
46283;DHT22;32017;43.700;11.820;2022-09-09T07:06:15;18.80;99.90
46283;DHT22;32017;43.700;11.820;2022-09-09T07:08:20;18.80;99.90
46283;DHT22;32017;43.700;11.820;2022-09-09T07:10:24;19.10;99.90
46283;DHT22;32017;43.700;11.820;2022-09-09T07:12:26;19.20;99.90
46283;DHT22;32017;43.700;11.820;2022-09-09T07:14:29;19.20;99.90
46283;DHT22;32017;43.700;11.820;2022-09-09T07:16:33;19.30;99.90
46283;DHT22;32017;43.700;11.820;2022-09-09T07:18:40;19.40;99.90
46283;DHT22;32017;43.700;11.820;2022-09-09T07:20:54;19.60;99.90
46283;DHT22;32017;43.700;11.820;2022-09-09T07:22:56;19.70;99.90
46283;DHT22;32017;43.700;11.820;2022-09-09T07:25:01;19.80;99.90
46283;DHT22;32017;43.700;11.820;2022-09-09T07:27:04;19.90;99.90
46283;DHT22;32017;43.700;11.820;2022-09-09T07:29:08;20.10;99.90
46283;DHT22;32017;43.700;11.820;2022-09-09T07:31:14;20.50;99.90
46283;DHT22;32017;43.700;11.820;2022-09-09T07:33:17;20.80;99.90
46283;DHT22;32017;43.700;11.820;2022-09-09T07:35:22;20.80;99.90
46283;DHT22;32017;43.700;11.820;2022-09-09T07:37:30;21.10;99.90
46283;DHT22;32017;43.700;11.820;2022-09-09T07:39:32;21.10;99.90
46283;DHT22;32017;43.700;11.820;2022-09-09T07:41:41;21.30;99.90
46283;DHT22;32017;43.700;11.820;2022-09-09T07:43:48;21.60;99.90
46283;DHT22;32017;43.700;11.820;2022-09-09T07:45:57;22.00;99.90
46283;DHT22;32017;43.700;11.820;2022-09-09T07:48:00;22.20;99.90
46283;DHT22;32017;43.700;11.820;2022-09-09T07:50:03;22.50;99.90
46283;DHT22;32017;43.700;11.820;2022-09-09T07:52:05;22.60;99.90
46283;DHT22;32017;43.700;11.820;2022-09-09T07:54:09;22.70;99.90
46283;DHT22;32017;43.700;11.820;2022-09-09T07:56:14;23.20;99.90
46283;DHT22;32017;43.700;11.820;2022-09-09T07:58:37;23.30;99.90
46283;DHT22;32017;43.700;11.820;2022-09-09T08:00:39;23.20;99.90
46283;DHT22;32017;43.700;11.820;2022-09-09T08:02:45;23.10;99.90
46283;DHT22;32017;43.700;11.820;2022-09-09T08:05:00;23.40;99.90
46283;DHT22;32017;43.700;11.820;2022-09-09T08:07:03;23.60;99.90
46283;DHT22;32017;43.700;11.820;2022-09-09T08:09:06;23.60;99.90
46283;DHT22;32017;43.700;11.820;2022-09-09T08:11:15;23.50;99.90
46283;DHT22;32017;43.700;11.820;2022-09-09T08:13:17;23.50;99.90
46283;DHT22;32017;43.700;11.820;2022-09-09T08:15:39;23.40;99.90
46283;DHT22;32017;43.700;11.820;2022-09-09T08:17:43;23.70;99.90
46283;DHT22;32017;43.700;11.820;2022-09-09T08:19:50;23.90;99.90
46283;DHT22;32017;43.700;11.820;2022-09-09T08:21:56;24.00;99.90
46283;DHT22;32017;43.700;11.820;2022-09-09T08:24:02;24.10;99.90
46283;DHT22;32017;43.700;11.820;2022-09-09T08:26:13;24.00;99.90
46283;DHT22;32017;43.700;11.820;2022-09-09T08:28:17;23.90;99.90
46283;DHT22;32017;43.700;11.820;2022-09-09T08:30:21;23.80;99.90
46283;DHT22;32017;43.700;11.820;2022-09-09T08:32:23;23.60;99.90
46283;DHT22;32017;43.700;11.820;2022-09-09T08:34:26;23.70;99.90
46283;DHT22;32017;43.700;11.820;2022-09-09T08:36:36;23.80;99.90
46283;DHT22;32017;43.700;11.820;2022-09-09T08:38:43;23.70;99.90
46283;DHT22;32017;43.700;11.820;2022-09-09T08:40:46;23.50;99.90
46283;DHT22;32017;43.700;11.820;2022-09-09T08:42:51;23.50;99.90
46283;DHT22;32017;43.700;11.820;2022-09-09T08:49:05;23.30;99.90
46283;DHT22;32017;43.700;11.820;2022-09-09T08:51:13;23.30;99.90
46283;DHT22;32017;43.700;11.820;2022-09-09T08:53:20;23.30;99.90
46283;DHT22;32017;43.700;11.820;2022-09-09T08:57:32;23.60;99.90
46283;DHT22;32017;43.700;11.820;2022-09-09T08:59:36;23.60;99.90
46283;DHT22;32017;43.700;11.820;2022-09-09T09:04:00;23.40;99.90
46283;DHT22;32017;43.700;11.820;2022-09-09T09:08:27;23.70;99.90
46283;DHT22;32017;43.700;11.820;2022-09-09T09:10:51;24.10;99.90
46283;DHT22;32017;43.700;11.820;2022-09-09T09:12:55;24.10;99.90
46283;DHT22;32017;43.700;11.820;2022-09-09T09:15:19;24.10;99.90
46283;DHT22;32017;43.700;11.820;2022-09-09T09:17:23;24.10;99.90
46283;DHT22;32017;43.700;11.820;2022-09-09T09:19:28;24.30;99.90
46283;DHT22;32017;43.700;11.820;2022-09-09T09:21:34;24.70;99.90
46283;DHT22;32017;43.700;11.820;2022-09-09T09:23:42;24.80;99.90
46283;DHT22;32017;43.700;11.820;2022-09-09T09:25:46;24.70;99.90
46283;DHT22;32017;43.700;11.820;2022-09-09T09:27:59;24.50;99.20
46283;DHT22;32017;43.700;11.820;2022-09-09T09:30:15;24.60;99.90
46283;DHT22;32017;43.700;11.820;2022-09-09T09:32:30;24.90;99.90
46283;DHT22;32017;43.700;11.820;2022-09-09T09:34:35;25.00;99.90
46283;DHT22;32017;43.700;11.820;2022-09-09T09:36:41;24.80;99.90
46283;DHT22;32017;43.700;11.820;2022-09-09T09:38:59;24.80;99.90
46283;DHT22;32017;43.700;11.820;2022-09-09T09:41:32;24.70;98.80
46283;DHT22;32017;43.700;11.820;2022-09-09T09:43:37;24.90;99.90
46283;DHT22;32017;43.700;11.820;2022-09-09T09:45:44;25.20;99.90
46283;DHT22;32017;43.700;11.820;2022-09-09T09:48:00;25.10;99.90
46283;DHT22;32017;43.700;11.820;2022-09-09T09:50:19;25.00;99.90
46283;DHT22;32017;43.700;11.820;2022-09-09T09:52:25;24.90;99.90
46283;DHT22;32017;43.700;11.820;2022-09-09T09:54:34;25.00;99.90
46283;DHT22;32017;43.700;11.820;2022-09-09T09:56:39;25.40;99.90
46283;DHT22;32017;43.700;11.820;2022-09-09T10:00:51;25.70;99.90
46283;DHT22;32017;43.700;11.820;2022-09-09T10:02:53;25.90;99.90
46283;DHT22;32017;43.700;11.820;2022-09-09T10:05:03;25.80;99.70
46283;DHT22;32017;43.700;11.820;2022-09-09T10:07:21;25.60;99.70
46283;DHT22;32017;43.700;11.820;2022-09-09T10:16:31;26.30;99.30
46283;DHT22;32017;43.700;11.820;2022-09-09T10:22:31;26.30;98.50
46283;DHT22;32017;43.700;11.820;2022-09-09T10:35:43;26.10;96.00
46283;DHT22;32017;43.700;11.820;2022-09-09T10:39:54;26.20;94.60
46283;DHT22;32017;43.700;11.820;2022-09-09T10:42:06;26.40;94.00
46283;DHT22;32017;43.700;11.820;2022-09-09T10:51:09;26.70;94.90
46283;DHT22;32017;43.700;11.820;2022-09-09T10:55:50;26.70;94.80
46283;DHT22;32017;43.700;11.820;2022-09-09T10:57:54;26.50;95.40
46283;DHT22;32017;43.700;11.820;2022-09-09T11:00:03;27.10;94.90
46283;DHT22;32017;43.700;11.820;2022-09-09T11:02:14;27.10;94.10
46283;DHT22;32017;43.700;11.820;2022-09-09T11:04:22;27.30;95.10
46283;DHT22;32017;43.700;11.820;2022-09-09T11:06:47;27.70;94.90
46283;DHT22;32017;43.700;11.820;2022-09-09T11:08:50;28.00;94.60
46283;DHT22;32017;43.700;11.820;2022-09-09T11:13:09;27.80;92.40
46283;DHT22;32017;43.700;11.820;2022-09-09T11:15:17;27.60;91.60
46283;DHT22;32017;43.700;11.820;2022-09-09T11:17:24;27.20;90.20
46283;DHT22;32017;43.700;11.820;2022-09-09T11:19:32;27.30;89.20
46283;DHT22;32017;43.700;11.820;2022-09-09T11:21:46;27.40;90.70
46283;DHT22;32017;43.700;11.820;2022-09-09T11:23:56;27.40;91.00
46283;DHT22;32017;43.700;11.820;2022-09-09T11:26:01;27.60;90.70
46283;DHT22;32017;43.700;11.820;2022-09-09T11:37:17;28.00;90.00
46283;DHT22;32017;43.700;11.820;2022-09-09T11:41:36;28.50;91.00
46283;DHT22;32017;43.700;11.820;2022-09-09T11:43:40;29.00;91.00
46283;DHT22;32017;43.700;11.820;2022-09-09T11:45:51;28.90;90.40
46283;DHT22;32017;43.700;11.820;2022-09-09T11:47:59;28.80;90.40
46283;DHT22;32017;43.700;11.820;2022-09-09T11:52:20;28.00;90.70
46283;DHT22;32017;43.700;11.820;2022-09-09T11:54:33;27.90;90.50
46283;DHT22;32017;43.700;11.820;2022-09-09T11:56:45;28.00;90.40
46283;DHT22;32017;43.700;11.820;2022-09-09T12:01:00;28.10;90.00
46283;DHT22;32017;43.700;11.820;2022-09-09T12:03:08;28.00;89.20
46283;DHT22;32017;43.700;11.820;2022-09-09T12:08:03;28.30;90.20
46283;DHT22;32017;43.700;11.820;2022-09-09T12:12:31;28.60;90.40
46283;DHT22;32017;43.700;11.820;2022-09-09T12:14:42;28.90;91.00
46283;DHT22;32017;43.700;11.820;2022-09-09T12:16:46;29.30;91.30
46283;DHT22;32017;43.700;11.820;2022-09-09T12:18:48;28.90;89.30
46283;DHT22;32017;43.700;11.820;2022-09-09T12:20:57;29.30;92.10
46283;DHT22;32017;43.700;11.820;2022-09-09T12:23:30;29.50;89.80
46283;DHT22;32017;43.700;11.820;2022-09-09T12:27:50;29.10;88.10
46283;DHT22;32017;43.700;11.820;2022-09-09T12:32:13;28.90;89.40
46283;DHT22;32017;43.700;11.820;2022-09-09T12:36:34;28.70;91.00
46283;DHT22;32017;43.700;11.820;2022-09-09T12:38:38;28.90;87.40
46283;DHT22;32017;43.700;11.820;2022-09-09T12:40:41;28.80;88.70
46283;DHT22;32017;43.700;11.820;2022-09-09T12:42:43;29.10;90.20
46283;DHT22;32017;43.700;11.820;2022-09-09T12:44:56;29.50;90.00
46283;DHT22;32017;43.700;11.820;2022-09-09T12:47:05;30.00;90.10
46283;DHT22;32017;43.700;11.820;2022-09-09T12:49:24;29.50;90.80
46283;DHT22;32017;43.700;11.820;2022-09-09T12:51:34;29.30;88.10
46283;DHT22;32017;43.700;11.820;2022-09-09T12:53:36;29.20;88.20
46283;DHT22;32017;43.700;11.820;2022-09-09T12:55:48;28.90;89.80
46283;DHT22;32017;43.700;11.820;2022-09-09T12:57:51;28.90;89.20
46283;DHT22;32017;43.700;11.820;2022-09-09T13:00:03;28.60;88.20
46283;DHT22;32017;43.700;11.820;2022-09-09T13:02:44;28.90;90.00
46283;DHT22;32017;43.700;11.820;2022-09-09T13:04:36;29.40;89.50
46283;DHT22;32017;43.700;11.820;2022-09-09T13:06:38;29.80;88.00
46283;DHT22;32017;43.700;11.820;2022-09-09T13:08:41;29.70;87.70
46283;DHT22;32017;43.700;11.820;2022-09-09T13:12:56;29.60;88.80
46283;DHT22;32017;43.700;11.820;2022-09-09T13:15:00;29.10;89.60
46283;DHT22;32017;43.700;11.820;2022-09-09T13:17:04;29.40;87.20
46283;DHT22;32017;43.700;11.820;2022-09-09T13:19:18;29.50;86.80
46283;DHT22;32017;43.700;11.820;2022-09-09T13:21:30;29.90;88.90
46283;DHT22;32017;43.700;11.820;2022-09-09T13:23:36;30.10;88.80
46283;DHT22;32017;43.700;11.820;2022-09-09T13:25:40;29.80;86.60
46283;DHT22;32017;43.700;11.820;2022-09-09T13:32:28;29.80;85.30
46283;DHT22;32017;43.700;11.820;2022-09-09T13:34:32;29.40;85.10
46283;DHT22;32017;43.700;11.820;2022-09-09T13:36:35;29.40;87.30
46283;DHT22;32017;43.700;11.820;2022-09-09T13:38:53;29.50;86.40
46283;DHT22;32017;43.700;11.820;2022-09-09T13:40:58;29.10;85.50
46283;DHT22;32017;43.700;11.820;2022-09-09T13:43:10;28.90;85.00
46283;DHT22;32017;43.700;11.820;2022-09-09T13:45:19;29.50;87.40
46283;DHT22;32017;43.700;11.820;2022-09-09T13:47:29;29.50;85.60
46283;DHT22;32017;43.700;11.820;2022-09-09T13:49:33;29.20;85.30
46283;DHT22;32017;43.700;11.820;2022-09-09T13:51:45;29.50;88.20
46283;DHT22;32017;43.700;11.820;2022-09-09T13:53:48;29.60;85.90
46283;DHT22;32017;43.700;11.820;2022-09-09T13:55:57;29.60;86.90
46283;DHT22;32017;43.700;11.820;2022-09-09T13:58:00;29.20;86.90
46283;DHT22;32017;43.700;11.820;2022-09-09T14:00:17;28.70;87.10
46283;DHT22;32017;43.700;11.820;2022-09-09T14:02:19;28.30;85.90
46283;DHT22;32017;43.700;11.820;2022-09-09T14:04:24;28.30;86.90
46283;DHT22;32017;43.700;11.820;2022-09-09T14:06:27;28.30;86.70
46283;DHT22;32017;43.700;11.820;2022-09-09T14:08:31;28.60;86.00
46283;DHT22;32017;43.700;11.820;2022-09-09T14:10:39;28.30;85.80
46283;DHT22;32017;43.700;11.820;2022-09-09T14:12:41;28.50;86.20
46283;DHT22;32017;43.700;11.820;2022-09-09T14:14:45;28.40;85.80
46283;DHT22;32017;43.700;11.820;2022-09-09T14:16:50;28.70;87.50
46283;DHT22;32017;43.700;11.820;2022-09-09T14:18:55;28.40;80.30
46283;DHT22;32017;43.700;11.820;2022-09-09T14:21:01;28.30;81.90
46283;DHT22;32017;43.700;11.820;2022-09-09T14:23:04;28.50;82.10
46283;DHT22;32017;43.700;11.820;2022-09-09T14:25:08;28.80;82.80
46283;DHT22;32017;43.700;11.820;2022-09-09T14:27:10;28.80;82.90
46283;DHT22;32017;43.700;11.820;2022-09-09T14:29:28;28.80;83.10
46283;DHT22;32017;43.700;11.820;2022-09-09T14:31:31;28.70;84.30
46283;DHT22;32017;43.700;11.820;2022-09-09T14:33:35;28.60;86.10
46283;DHT22;32017;43.700;11.820;2022-09-09T14:35:38;28.60;85.20
46283;DHT22;32017;43.700;11.820;2022-09-09T14:37:42;28.80;86.20
46283;DHT22;32017;43.700;11.820;2022-09-09T14:39:47;29.10;85.90
46283;DHT22;32017;43.700;11.820;2022-09-09T14:41:50;29.00;85.10
46283;DHT22;32017;43.700;11.820;2022-09-09T14:43:53;28.60;84.60
46283;DHT22;32017;43.700;11.820;2022-09-09T14:46:05;28.60;85.40
46283;DHT22;32017;43.700;11.820;2022-09-09T14:48:07;28.40;86.90
46283;DHT22;32017;43.700;11.820;2022-09-09T14:50:13;28.30;86.60
46283;DHT22;32017;43.700;11.820;2022-09-09T14:52:15;28.60;86.60
46283;DHT22;32017;43.700;11.820;2022-09-09T14:54:17;28.20;83.50
46283;DHT22;32017;43.700;11.820;2022-09-09T14:56:20;28.00;86.10
46283;DHT22;32017;43.700;11.820;2022-09-09T14:58:23;28.00;83.40
46283;DHT22;32017;43.700;11.820;2022-09-09T15:00:26;28.00;83.20
46283;DHT22;32017;43.700;11.820;2022-09-09T15:02:28;27.80;83.90
46283;DHT22;32017;43.700;11.820;2022-09-09T15:04:31;27.80;82.30
46283;DHT22;32017;43.700;11.820;2022-09-09T15:06:34;27.60;83.70
46283;DHT22;32017;43.700;11.820;2022-09-09T15:08:37;28.00;86.50
46283;DHT22;32017;43.700;11.820;2022-09-09T15:10:42;28.20;83.60
46283;DHT22;32017;43.700;11.820;2022-09-09T15:12:49;28.30;83.20
46283;DHT22;32017;43.700;11.820;2022-09-09T15:14:52;28.40;83.40
46283;DHT22;32017;43.700;11.820;2022-09-09T15:17:01;28.70;84.70
46283;DHT22;32017;43.700;11.820;2022-09-09T15:19:23;28.80;84.00
46283;DHT22;32017;43.700;11.820;2022-09-09T15:21:30;28.40;85.40
46283;DHT22;32017;43.700;11.820;2022-09-09T15:23:34;28.00;86.10
46283;DHT22;32017;43.700;11.820;2022-09-09T15:25:36;28.10;86.60
46283;DHT22;32017;43.700;11.820;2022-09-09T15:27:39;28.00;85.80